Iberica Hav — C6YI3 — position and weather

sailwx.info

Track history (hours):
 
Tides and Currents Weather Stations Pressure Air Temp Water Temp Dewpoint Dewpoint Depression Visibility Wind Speed Wind Dir Waves Ship Positions

Iberica Hav

Last reported at 2017-Nov-20 00:30 UTC. Time now 2017-Nov-20 05:59 UTC.
Position N 53°45' W 000°16'.

Length 88 m; draft 3.7 m.

Type: Cargo ship. MMSI: 311034400.

Date/timePositionNaut miles runAvg speedWind from/ knotsBaromVisibWave heightAir tempDewpointWater temp
2017-Nov-20 00:30N 53°45' W 000°16'0 0.7
2017-Nov-20 00:00N 53°44' W 000°16'0 0.2
2017-Nov-19 23:30N 53°44' W 000°16'2 4.2
2017-Nov-19 23:00N 53°43' W 000°14'3 5.2
2017-Nov-19 22:30N 53°40' W 000°13'3 5.5
2017-Nov-19 22:00N 53°38' W 000°10'3 6.0
2017-Nov-19 21:30N 53°37' W 000°05'7 6.3
2017-Nov-19 20:20N 53°34' E 000°06'51 7.8
2017-Nov-19 13:45N 53°00' E 001°11'2 9.8
2017-Nov-19 13:30N 52°59' E 001°15'5 9.8
2017-Nov-19 13:00N 52°57' E 001°22'5 9.9
2017-Nov-19 12:30N 52°54' E 001°29'5 9.5
2017-Nov-19 12:00N 52°52' E 001°35'4 8.6
2017-Nov-19 11:30N 52°50' E 001°41'4 7.8
2017-Nov-19 11:00N 52°47' E 001°47'4 7.1
2017-Nov-19 10:30N 52°45' E 001°51'3 6.4
2017-Nov-19 10:00N 52°43' E 001°55'3 5.9
2017-Nov-19 09:28N 52°40' E 001°59'85 5.9
2017-Nov-18 19:08N 51°34' E 003°24'2 7.2
2017-Nov-18 18:49N 51°32' E 003°26'3 8.1
2017-Nov-18 18:30N 51°30' E 003°28'5 9.2
2017-Nov-18 17:59N 51°27' E 003°34'4 8.9
2017-Nov-18 17:30N 51°26' E 003°40'510.8
2017-Nov-18 17:00N 51°22' E 003°45'3 6.6
2017-Nov-18 16:30N 51°20' E 003°49'1 2.3
2017-Nov-18 16:01N 51°19' E 003°50'4 7.6
2017-Nov-18 15:31N 51°15' E 003°49'4 7.9
2017-Nov-18 15:01N 51°11' E 003°48'4 8.9
2017-Nov-18 14:30N 51°07' E 003°45'2 3.2
2017-Nov-18 13:59N 51°05' E 003°45'0 0.0
2017-Nov-18 13:30N 51°05' E 003°45'0 0.0
2017-Nov-18 12:59N 51°05' E 003°45'0 0.0
2017-Nov-18 12:30N 51°05' E 003°45'0 0.0
2017-Nov-18 12:00N 51°05' E 003°45'0 0.0
2017-Nov-18 11:27N 51°05' E 003°45'0 0.0
2017-Nov-18 11:00N 51°05' E 003°45'0 0.1
2017-Nov-18 10:30N 51°05' E 003°45'0 0.0
2017-Nov-18 09:56N 51°05' E 003°45'0 0.0
2017-Nov-18 09:29N 51°05' E 003°45'0 0.0
2017-Nov-18 08:56N 51°05' E 003°45'0 0.0
2017-Nov-18 08:29N 51°05' E 003°45'0 0.0
2017-Nov-18 07:56N 51°05' E 003°45'0 0.0
2017-Nov-18 07:29N 51°05' E 003°45'0 0.0
2017-Nov-18 06:56N 51°05' E 003°45'0 0.0
2017-Nov-18 06:29N 51°05' E 003°45'0 0.0
2017-Nov-18 05:56N 51°05' E 003°45'0 0.0
2017-Nov-18 05:29N 51°05' E 003°45'0 0.0
2017-Nov-18 04:56N 51°05' E 003°45'0 0.0
2017-Nov-18 04:28N 51°05' E 003°45'0 0.0
2017-Nov-18 03:56N 51°05' E 003°45'0 0.1
2017-Nov-18 03:28N 51°05' E 003°45'0 0.1
2017-Nov-18 02:56N 51°05' E 003°45'0 0.0
2017-Nov-18 02:28N 51°05' E 003°45'0 0.0
2017-Nov-18 01:56N 51°05' E 003°45'0 0.0
2017-Nov-18 01:25N 51°05' E 003°45'0 0.0
2017-Nov-18 00:59N 51°05' E 003°45'0 0.0
2017-Nov-18 00:28N 51°05' E 003°45'0 0.0
2017-Nov-17 23:59N 51°05' E 003°45'0 0.0
2017-Nov-17 23:25N 51°05' E 003°45'0 0.0
2017-Nov-17 22:58N 51°05' E 003°45'0 0.0
2017-Nov-17 22:29N 51°05' E 003°45'1 2.3
2017-Nov-17 22:00N 51°06' E 003°45'4 8.4
2017-Nov-17 21:31N 51°10' E 003°48'4 7.8
2017-Nov-17 21:00N 51°14' E 003°48'2 4.1
2017-Nov-17 20:30N 51°16' E 003°50'4 7.8
2017-Nov-17 20:00N 51°20' E 003°49'0 0.5
2017-Nov-17 19:30N 51°20' E 003°49'1 1.5
2017-Nov-17 19:00N 51°20' E 003°49'1 2.2
2017-Nov-17 18:30N 51°21' E 003°47'4 7.7
2017-Nov-17 18:00N 51°23' E 003°42'4 7.5
2017-Nov-17 17:30N 51°25' E 003°37'3 6.2
2017-Nov-17 17:00N 51°25' E 003°32'2 4.6
2017-Nov-17 16:28N 51°24' E 003°28'2 4.6
2017-Nov-17 16:00N 51°24' E 003°25'3 5.5
2017-Nov-17 15:30N 51°24' E 003°20'4 8.5
2017-Nov-17 15:00N 51°23' E 003°14'510.1
2017-Nov-17 14:30N 51°22' E 003°06'510.7
2017-Nov-17 14:00N 51°21' E 002°57'611.0
2017-Nov-17 13:30N 51°21' E 002°48'510.0
2017-Nov-17 13:00N 51°21' E 002°40'510.1
2017-Nov-17 12:29N 51°20' E 002°32'0 0.4
2017-Nov-17 12:00N 51°20' E 002°32'0 0.0
2017-Nov-17 11:30N 51°20' E 002°32'0 0.0
2017-Nov-17 11:00N 51°20' E 002°32'0 0.1
2017-Nov-17 10:30N 51°20' E 002°32'0 0.1
2017-Nov-17 10:00N 51°20' E 002°32'0 0.1
2017-Nov-17 09:30N 51°20' E 002°32'0 0.0
2017-Nov-17 09:00N 51°20' E 002°32'0 0.0
2017-Nov-17 08:27N 51°20' E 002°32'0 0.0
2017-Nov-17 08:00N 51°20' E 002°32'0 0.0
2017-Nov-17 07:30N 51°20' E 002°32'0 0.0
2017-Nov-17 06:57N 51°20' E 002°32'0 0.0
2017-Nov-17 06:27N 51°20' E 002°32'0 0.0
2017-Nov-17 06:00N 51°20' E 002°32'0 0.0
2017-Nov-17 05:30N 51°20' E 002°32'0 0.0
2017-Nov-17 05:00N 51°20' E 002°32'0 0.0
2017-Nov-17 04:30N 51°20' E 002°32'0 0.6
2017-Nov-17 03:56N 51°20' E 002°32'2 4.4
2017-Nov-17 03:30N 51°22' E 002°30'4 8.2
2017-Nov-17 03:00N 51°20' E 002°24'4 8.9
2017-Nov-17 02:30N 51°18' E 002°18'7 9.2
2017-Nov-17 01:42N 51°19' E 002°06'2 9.4
2017-Nov-17 01:30N 51°20' E 002°04'4 8.4
2017-Nov-17 01:00N 51°23' E 001°59'4 9.1
2017-Nov-17 00:30N 51°26' E 001°54'4 8.3
2017-Nov-17 00:00N 51°29' E 001°49'5 9.6
2017-Nov-16 23:30N 51°29' E 001°41'4 8.9
2017-Nov-16 23:00N 51°28' E 001°34'4 8.6
2017-Nov-16 22:30N 51°26' E 001°28'3 5.3
2017-Nov-16 22:00N 51°25' E 001°24'0 0.0
2017-Nov-16 21:30N 51°25' E 001°24'0 0.0
2017-Nov-16 21:00N 51°25' E 001°24'0 0.0
2017-Nov-16 20:30N 51°25' E 001°24'0 0.0
2017-Nov-16 20:00N 51°25' E 001°24'0 0.0
2017-Nov-16 19:30N 51°25' E 001°24'0 0.0
2017-Nov-16 19:00N 51°25' E 001°24'0 0.0
2017-Nov-16 18:30N 51°25' E 001°24'0 0.1
2017-Nov-16 18:00N 51°25' E 001°24'0 0.1
2017-Nov-16 17:30N 51°25' E 001°24'0 0.1
2017-Nov-16 17:00N 51°25' E 001°24'0 0.1
2017-Nov-16 16:30N 51°25' E 001°24'0 0.0
2017-Nov-16 16:00N 51°25' E 001°24'0 0.0
2017-Nov-16 15:30N 51°25' E 001°24'0 0.0
2017-Nov-16 15:00N 51°25' E 001°24'0 0.0
2017-Nov-16 14:30N 51°25' E 001°24'0 0.0
2017-Nov-16 14:00N 51°25' E 001°24'0 0.0
2017-Nov-16 13:30N 51°25' E 001°24'0 0.0
2017-Nov-16 13:00N 51°25' E 001°24'0 0.0
2017-Nov-16 12:30N 51°25' E 001°24'0 0.0
2017-Nov-16 12:00N 51°25' E 001°24'0 0.0
2017-Nov-16 11:30N 51°25' E 001°24'0 0.2
2017-Nov-16 11:00N 51°25' E 001°24'0 0.0
2017-Nov-16 10:30N 51°25' E 001°24'0 0.0
2017-Nov-16 10:00N 51°25' E 001°24'0 0.0
2017-Nov-16 09:30N 51°25' E 001°24'0 0.0
2017-Nov-16 09:00N 51°25' E 001°24'0 0.1
2017-Nov-16 08:30N 51°25' E 001°24'0 0.0
2017-Nov-16 08:00N 51°25' E 001°24'0 0.0
2017-Nov-16 07:30N 51°25' E 001°24'0 0.0
2017-Nov-16 07:00N 51°25' E 001°24'0 0.0
2017-Nov-16 06:30N 51°25' E 001°24'0 0.0
2017-Nov-16 06:00N 51°25' E 001°24'0 0.1
2017-Nov-16 05:30N 51°25' E 001°24'0 0.1
2017-Nov-16 05:00N 51°25' E 001°24'0 0.0
2017-Nov-16 04:30N 51°25' E 001°24'0 0.0
2017-Nov-16 04:00N 51°25' E 001°24'0 0.0
2017-Nov-16 03:30N 51°25' E 001°24'0 0.0
2017-Nov-16 03:00N 51°25' E 001°24'0 0.0
2017-Nov-16 02:30N 51°25' E 001°24'0 0.0
2017-Nov-16 02:00N 51°25' E 001°24'0 0.0
2017-Nov-16 01:30N 51°25' E 001°24'0 0.0
2017-Nov-16 01:00N 51°25' E 001°24'0 0.0
2017-Nov-16 00:30N 51°25' E 001°24'0 0.0
2017-Nov-16 00:00N 51°25' E 001°24'0 0.0
2017-Nov-15 23:30N 51°25' E 001°24'0 0.2
2017-Nov-15 23:00N 51°25' E 001°24'0 0.0
2017-Nov-15 22:30N 51°25' E 001°24'0 0.0
2017-Nov-15 22:00N 51°25' E 001°24'0 0.0
2017-Nov-15 21:30N 51°25' E 001°24'0 0.0
2017-Nov-15 21:00N 51°25' E 001°24'0 0.0
2017-Nov-15 20:30N 51°25' E 001°24'0 0.0
2017-Nov-15 20:00N 51°25' E 001°24'0 0.0
2017-Nov-15 19:30N 51°25' E 001°24'0 0.0
2017-Nov-15 19:00N 51°25' E 001°24'0 0.0
2017-Nov-15 18:30N 51°25' E 001°24'0 0.0
2017-Nov-15 18:00N 51°25' E 001°24'0 0.0
2017-Nov-15 17:30N 51°25' E 001°24'0 0.0
2017-Nov-15 17:00N 51°25' E 001°24'0 0.1
2017-Nov-15 16:30N 51°25' E 001°24'0 0.1
2017-Nov-15 16:00N 51°25' E 001°24'0 0.0
2017-Nov-15 15:30N 51°25' E 001°24'0 0.0
2017-Nov-15 15:00N 51°25' E 001°24'0 0.0
2017-Nov-15 14:30N 51°25' E 001°24'0 0.0
2017-Nov-15 14:00N 51°25' E 001°24'0 0.0
2017-Nov-15 13:30N 51°25' E 001°24'0 0.0
2017-Nov-15 13:00N 51°25' E 001°24'0 0.0
2017-Nov-15 12:30N 51°25' E 001°24'0 0.0
2017-Nov-15 12:00N 51°25' E 001°24'0 0.0
2017-Nov-15 11:30N 51°25' E 001°24'0 0.1
2017-Nov-15 11:00N 51°25' E 001°24'0 0.2
2017-Nov-15 10:30N 51°25' E 001°24'0 0.0
2017-Nov-15 10:00N 51°25' E 001°24'0 0.0
2017-Nov-15 09:30N 51°25' E 001°24'0 0.0
2017-Nov-15 09:00N 51°25' E 001°24'0 0.0
2017-Nov-15 08:30N 51°25' E 001°24'0 0.0
2017-Nov-15 08:00N 51°25' E 001°24'0 0.0
2017-Nov-15 07:30N 51°25' E 001°24'0 0.0
2017-Nov-15 07:00N 51°25' E 001°24'0 0.0
2017-Nov-15 06:30N 51°25' E 001°24'0 0.0
2017-Nov-15 06:00N 51°25' E 001°24'0 0.0
2017-Nov-15 05:30N 51°25' E 001°24'0 0.1
2017-Nov-15 05:00N 51°25' E 001°24'0 0.1
2017-Nov-15 04:30N 51°25' E 001°24'0 0.0
2017-Nov-15 04:00N 51°25' E 001°24'0 0.0
2017-Nov-15 03:30N 51°25' E 001°24'0 0.0
2017-Nov-15 03:00N 51°25' E 001°24'0 0.0
2017-Nov-15 02:30N 51°25' E 001°24'0 0.0
2017-Nov-15 02:00N 51°25' E 001°24'0 0.0
2017-Nov-15 01:30N 51°25' E 001°24'0 0.0
2017-Nov-15 01:00N 51°25' E 001°24'0 0.0
2017-Nov-15 00:30N 51°25' E 001°24'0 0.0
2017-Nov-15 00:00N 51°25' E 001°24'0 0.1
2017-Nov-14 23:30N 51°25' E 001°24'0 0.3
2017-Nov-14 23:00N 51°25' E 001°24'4 8.0
2017-Nov-14 22:30N 51°24' E 001°30'5 9.8
2017-Nov-14 22:00N 51°20' E 001°35'611.0
2017-Nov-14 21:30N 51°15' E 001°38'510.4
2017-Nov-14 21:00N 51°10' E 001°38'5 9.0
2017-Nov-14 20:30N 51°06' E 001°40'510.8
2017-Nov-14 20:00N 51°01' E 001°36'510.5
2017-Nov-14 19:30N 50°57' E 001°32'65 7.1
2017-Nov-14 10:21N 50°33' W 000°04'3 8.8
2017-Nov-14 10:00N 50°36' W 000°04'5 9.0
2017-Nov-14 09:30N 50°40' W 000°01'5 9.4
2017-Nov-14 09:00N 50°44' E 000°02'4 7.1
2017-Nov-14 08:30N 50°48' E 000°03'0 0.1
2017-Nov-14 07:54N 50°48' E 000°03'0 0.0
2017-Nov-14 07:30N 50°48' E 000°03'0 0.0
2017-Nov-14 07:00N 50°48' E 000°03'0 0.0
2017-Nov-14 06:30N 50°48' E 000°03'0 0.0
2017-Nov-14 06:00N 50°48' E 000°03'0 0.0
2017-Nov-14 05:27N 50°48' E 000°03'0 0.0
2017-Nov-14 05:00N 50°48' E 000°03'0 0.0
2017-Nov-14 04:30N 50°48' E 000°03'0 0.0
2017-Nov-14 04:00N 50°48' E 000°03'0 0.0
2017-Nov-14 03:27N 50°48' E 000°03'0 0.0
2017-Nov-14 03:00N 50°48' E 000°03'0 0.0
2017-Nov-14 02:30N 50°48' E 000°03'0 0.0
2017-Nov-14 02:00N 50°48' E 000°03'0 0.0
2017-Nov-14 01:30N 50°48' E 000°03'0 0.0
2017-Nov-14 00:57N 50°48' E 000°03'0 0.0
2017-Nov-14 00:30N 50°48' E 000°03'0 0.0
2017-Nov-14 00:00N 50°48' E 000°03'0 0.0
2017-Nov-13 23:30N 50°48' E 000°03'0 0.0
2017-Nov-13 23:00N 50°48' E 000°03'0 0.0
2017-Nov-13 22:27N 50°48' E 000°03'0 0.0
2017-Nov-13 22:00N 50°48' E 000°03'112 5.0
2017-Nov-12 23:23N 50°16' W 002°46'3 6.8
2017-Nov-12 22:53N 50°16' W 002°51'2 6.5
2017-Nov-12 22:30N 50°15' W 002°55'3 6.4
2017-Nov-12 22:00N 50°14' W 003°00'3 6.4
2017-Nov-12 21:31N 50°14' W 003°05'3 6.4
2017-Nov-12 21:00N 50°13' W 003°10'3 6.4
2017-Nov-12 20:30N 50°13' W 003°15'3 6.6
2017-Nov-12 20:01N 50°12' W 003°20'4 7.0
2017-Nov-12 19:30N 50°11' W 003°25'4 7.1
2017-Nov-12 19:01N 50°10' W 003°30'4 7.3
2017-Nov-12 18:30N 50°10' W 003°36'4 7.6
2017-Nov-12 18:00N 50°09' W 003°42'5 7.9
2017-Nov-12 17:25N 50°09' W 003°49'4 8.1
2017-Nov-12 16:56N 50°08' W 003°55'5 8.1
2017-Nov-12 16:16N 50°08' W 004°03'2 8.1
2017-Nov-12 16:01N 50°08' W 004°07'8 8.0
2017-Nov-12 14:58N 50°07' W 004°20'4 8.0
2017-Nov-12 14:30N 50°06' W 004°25'5 7.8
2017-Nov-12 13:53N 50°06' W 004°33'3 7.9
2017-Nov-12 13:30N 50°05' W 004°38'4 8.2
2017-Nov-12 13:00N 50°05' W 004°44'8 8.3
2017-Nov-12 12:01N 50°04' W 004°57'3 7.2
2017-Nov-12 11:35N 50°04' W 005°01'1 0.2
2017-Nov-12 07:39N 50°05' W 005°01'1 3.6
2017-Nov-12 07:22N 50°04' W 005°01'2 4.0
2017-Nov-12 07:00N 50°03' W 004°59'2 1.3
2017-Nov-12 05:49N 50°04' W 005°00'0 0.6
2017-Nov-12 05:30N 50°04' W 005°00'2 3.1
2017-Nov-12 04:56N 50°03' W 004°58'0 1.2
2017-Nov-12 04:30N 50°03' W 004°59'0 0.9
2017-Nov-12 04:00N 50°03' W 004°60'1 1.4
2017-Nov-12 03:11N 50°04' W 004°58'1 4.8
2017-Nov-12 02:57N 50°04' W 004°57'0 0.8
2017-Nov-12 02:30N 50°04' W 004°56'1 1.2
2017-Nov-12 01:59N 50°04' W 004°57'1 1.2
2017-Nov-12 01:28N 50°04' W 004°58'1 1.7
2017-Nov-12 01:00N 50°05' W 004°57'1 1.1
2017-Nov-12 00:22N 50°05' W 004°57'2 1.3
2017-Nov-11 22:56N 50°05' W 004°59'1 3.1
2017-Nov-11 22:28N 50°05' W 004°57'2 1.2
2017-Nov-11 20:37N 50°04' W 005°00'1 3.5
2017-Nov-11 20:13N 50°04' W 004°58'1 4.7
2017-Nov-11 20:00N 50°03' W 004°57'0 0.8
2017-Nov-11 19:30N 50°03' W 004°57'1 0.8
2017-Nov-11 18:40N 50°03' W 004°58'0 0.8
2017-Nov-11 18:30N 50°03' W 004°58'2 0.9
2017-Nov-11 16:45N 50°03' W 005°01'1 3.4
2017-Nov-11 16:19N 50°02' W 004°59'1 1.1
2017-Nov-11 15:26N 50°02' W 004°58'1 1.2
2017-Nov-11 14:49N 50°02' W 004°59'1 1.3
2017-Nov-11 14:26N 50°02' W 004°59'1 0.7
2017-Nov-11 13:10N 50°03' W 004°59'2 5.1
2017-Nov-11 12:49N 50°03' W 004°56'1 1.0
2017-Nov-11 12:11N 50°03' W 004°57'0 1.5
2017-Nov-11 12:00N 50°03' W 004°57'1 1.5
2017-Nov-11 11:30N 50°03' W 004°58'2 1.7
2017-Nov-11 10:26N 50°02' W 005°01'2 4.3
2017-Nov-11 09:57N 50°04' W 004°60'9 6.2
2017-Nov-11 08:26N 50°04' W 004°45'3 5.6
2017-Nov-11 07:51N 50°03' W 004°40'2 5.4
2017-Nov-11 07:30N 50°03' W 004°37'3 5.2
2017-Nov-11 06:59N 50°03' W 004°33'3 5.2
2017-Nov-11 06:30N 50°03' W 004°29'3 4.8
2017-Nov-11 05:52N 50°03' W 004°25'3 4.4
2017-Nov-11 05:06N 50°03' W 004°19'0 4.4
2017-Nov-11 05:00N 50°03' W 004°19'3 4.2
2017-Nov-11 04:18N 50°04' W 004°14'1 4.3
2017-Nov-11 03:58N 50°04' W 004°12'4 4.5
2017-Nov-11 03:04N 50°05' W 004°06'0 3.8
2017-Nov-11 02:57N 50°05' W 004°05'2 4.5
2017-Nov-11 02:30N 50°05' W 004°02'6 4.9
2017-Nov-11 01:15N 50°07' W 003°53'1 5.1
2017-Nov-11 00:58N 50°07' W 003°51'4 5.2
2017-Nov-11 00:16N 50°09' W 003°45'2 5.1
2017-Nov-10 23:54N 50°09' W 003°43'2 5.2
2017-Nov-10 23:30N 50°09' W 003°39'3 5.5
2017-Nov-10 23:00N 50°10' W 003°35'3 6.2
2017-Nov-10 22:30N 50°10' W 003°30'3 6.7
2017-Nov-10 22:00N 50°11' W 003°25'3 7.0
2017-Nov-10 21:30N 50°11' W 003°20'4 7.6
2017-Nov-10 21:00N 50°12' W 003°14'4 7.9
2017-Nov-10 20:30N 50°13' W 003°08'4 8.6
2017-Nov-10 20:00N 50°13' W 003°01'5 9.1
2017-Nov-10 19:29N 50°14' W 002°54'6 9.4
2017-Nov-10 18:54N 50°16' W 002°46'7 9.8
2017-Nov-10 18:13N 50°17' W 002°35'44 5.8
2017-Nov-10 10:35N 50°10' W 001°27'0 4.5
2017-Nov-10 10:30N 50°10' W 001°27'2 3.9
2017-Nov-10 09:59N 50°08' W 001°25'2 3.5
2017-Nov-10 09:29N 50°07' W 001°23'2 4.9
2017-Nov-10 09:00N 50°06' W 001°20'7 6.4
2017-Nov-10 08:00N 50°04' W 001°10'3 6.7
2017-Nov-10 07:30N 50°02' W 001°06'7 8.6
2017-Nov-10 06:44N 49°60' W 000°56'19 9.6
2017-Nov-10 04:47N 49°55' W 000°28'3 9.3
2017-Nov-10 04:30N 49°54' W 000°24'5 9.3
2017-Nov-10 04:00N 49°53' W 000°17'5 9.1
2017-Nov-10 03:30N 49°52' W 000°10'5 9.0
2017-Nov-10 02:59N 49°51' W 000°03'4 8.6
2017-Nov-10 02:30N 49°50' E 000°03'4 8.2
2017-Nov-10 02:00N 49°48' E 000°09'4 7.8
2017-Nov-10 01:28N 49°47' E 000°15'  
Track history (hours):
 
Tides and Currents Weather Stations Pressure Air Temp Water Temp Dewpoint Dewpoint Depression Visibility Wind Speed Wind Dir Waves Ship Positions

Iberica Hav

Last reported at 2017-Nov-20 00:30 UTC. Time now 2017-Nov-20 05:59 UTC.
Position N 53°45' W 000°16'.

Length 88 m; draft 3.7 m.

Type: Cargo ship. MMSI: 311034400.

Date/timePositionNaut miles runAvg speedWind from/ knotsBaromVisibWave heightAir tempDewpointWater temp
2017-Nov-20 00:30N 53°45' W 000°16'0 0.7
2017-Nov-20 00:00N 53°44' W 000°16'0 0.2
2017-Nov-19 23:30N 53°44' W 000°16'2 4.2
2017-Nov-19 23:00N 53°43' W 000°14'3 5.2
2017-Nov-19 22:30N 53°40' W 000°13'3 5.5
2017-Nov-19 22:00N 53°38' W 000°10'3 6.0
2017-Nov-19 21:30N 53°37' W 000°05'7 6.3
2017-Nov-19 20:20N 53°34' E 000°06'51 7.8
2017-Nov-19 13:45N 53°00' E 001°11'2 9.8
2017-Nov-19 13:30N 52°59' E 001°15'5 9.8
2017-Nov-19 13:00N 52°57' E 001°22'5 9.9
2017-Nov-19 12:30N 52°54' E 001°29'5 9.5
2017-Nov-19 12:00N 52°52' E 001°35'4 8.6
2017-Nov-19 11:30N 52°50' E 001°41'4 7.8
2017-Nov-19 11:00N 52°47' E 001°47'4 7.1
2017-Nov-19 10:30N 52°45' E 001°51'3 6.4
2017-Nov-19 10:00N 52°43' E 001°55'3 5.9
2017-Nov-19 09:28N 52°40' E 001°59'85 5.9
2017-Nov-18 19:08N 51°34' E 003°24'2 7.2
2017-Nov-18 18:49N 51°32' E 003°26'3 8.1
2017-Nov-18 18:30N 51°30' E 003°28'5 9.2
2017-Nov-18 17:59N 51°27' E 003°34'4 8.9
2017-Nov-18 17:30N 51°26' E 003°40'510.8
2017-Nov-18 17:00N 51°22' E 003°45'3 6.6
2017-Nov-18 16:30N 51°20' E 003°49'1 2.3
2017-Nov-18 16:01N 51°19' E 003°50'4 7.6
2017-Nov-18 15:31N 51°15' E 003°49'4 7.9
2017-Nov-18 15:01N 51°11' E 003°48'4 8.9
2017-Nov-18 14:30N 51°07' E 003°45'2 3.2
2017-Nov-18 13:59N 51°05' E 003°45'0 0.0
2017-Nov-18 13:30N 51°05' E 003°45'0 0.0
2017-Nov-18 12:59N 51°05' E 003°45'0 0.0
2017-Nov-18 12:30N 51°05' E 003°45'0 0.0
2017-Nov-18 12:00N 51°05' E 003°45'0 0.0
2017-Nov-18 11:27N 51°05' E 003°45'0 0.0
2017-Nov-18 11:00N 51°05' E 003°45'0 0.1
2017-Nov-18 10:30N 51°05' E 003°45'0 0.0
2017-Nov-18 09:56N 51°05' E 003°45'0 0.0
2017-Nov-18 09:29N 51°05' E 003°45'0 0.0
2017-Nov-18 08:56N 51°05' E 003°45'0 0.0
2017-Nov-18 08:29N 51°05' E 003°45'0 0.0
2017-Nov-18 07:56N 51°05' E 003°45'0 0.0
2017-Nov-18 07:29N 51°05' E 003°45'0 0.0
2017-Nov-18 06:56N 51°05' E 003°45'0 0.0
2017-Nov-18 06:29N 51°05' E 003°45'0 0.0
2017-Nov-18 05:56N 51°05' E 003°45'0 0.0
2017-Nov-18 05:29N 51°05' E 003°45'0 0.0
2017-Nov-18 04:56N 51°05' E 003°45'0 0.0
2017-Nov-18 04:28N 51°05' E 003°45'0 0.0
2017-Nov-18 03:56N 51°05' E 003°45'0 0.1
2017-Nov-18 03:28N 51°05' E 003°45'0 0.1
2017-Nov-18 02:56N 51°05' E 003°45'0 0.0
2017-Nov-18 02:28N 51°05' E 003°45'0 0.0
2017-Nov-18 01:56N 51°05' E 003°45'0 0.0
2017-Nov-18 01:25N 51°05' E 003°45'0 0.0
2017-Nov-18 00:59N 51°05' E 003°45'0 0.0
2017-Nov-18 00:28N 51°05' E 003°45'0 0.0
2017-Nov-17 23:59N 51°05' E 003°45'0 0.0
2017-Nov-17 23:25N 51°05' E 003°45'0 0.0
2017-Nov-17 22:58N 51°05' E 003°45'0 0.0
2017-Nov-17 22:29N 51°05' E 003°45'1 2.3
2017-Nov-17 22:00N 51°06' E 003°45'4 8.4
2017-Nov-17 21:31N 51°10' E 003°48'4 7.8
2017-Nov-17 21:00N 51°14' E 003°48'2 4.1
2017-Nov-17 20:30N 51°16' E 003°50'4 7.8
2017-Nov-17 20:00N 51°20' E 003°49'0 0.5
2017-Nov-17 19:30N 51°20' E 003°49'1 1.5
2017-Nov-17 19:00N 51°20' E 003°49'1 2.2
2017-Nov-17 18:30N 51°21' E 003°47'4 7.7
2017-Nov-17 18:00N 51°23' E 003°42'4 7.5
2017-Nov-17 17:30N 51°25' E 003°37'3 6.2
2017-Nov-17 17:00N 51°25' E 003°32'2 4.6
2017-Nov-17 16:28N 51°24' E 003°28'2 4.6
2017-Nov-17 16:00N 51°24' E 003°25'3 5.5
2017-Nov-17 15:30N 51°24' E 003°20'4 8.5
2017-Nov-17 15:00N 51°23' E 003°14'510.1
2017-Nov-17 14:30N 51°22' E 003°06'510.7
2017-Nov-17 14:00N 51°21' E 002°57'611.0
2017-Nov-17 13:30N 51°21' E 002°48'510.0
2017-Nov-17 13:00N 51°21' E 002°40'510.1
2017-Nov-17 12:29N 51°20' E 002°32'0 0.4
2017-Nov-17 12:00N 51°20' E 002°32'0 0.0
2017-Nov-17 11:30N 51°20' E 002°32'0 0.0
2017-Nov-17 11:00N 51°20' E 002°32'0 0.1
2017-Nov-17 10:30N 51°20' E 002°32'0 0.1
2017-Nov-17 10:00N 51°20' E 002°32'0 0.1
2017-Nov-17 09:30N 51°20' E 002°32'0 0.0
2017-Nov-17 09:00N 51°20' E 002°32'0 0.0
2017-Nov-17 08:27N 51°20' E 002°32'0 0.0
2017-Nov-17 08:00N 51°20' E 002°32'0 0.0
2017-Nov-17 07:30N 51°20' E 002°32'0 0.0
2017-Nov-17 06:57N 51°20' E 002°32'0 0.0
2017-Nov-17 06:27N 51°20' E 002°32'0 0.0
2017-Nov-17 06:00N 51°20' E 002°32'0 0.0
2017-Nov-17 05:30N 51°20' E 002°32'0 0.0
2017-Nov-17 05:00N 51°20' E 002°32'0 0.0
2017-Nov-17 04:30N 51°20' E 002°32'0 0.6
2017-Nov-17 03:56N 51°20' E 002°32'2 4.4
2017-Nov-17 03:30N 51°22' E 002°30'4 8.2
2017-Nov-17 03:00N 51°20' E 002°24'4 8.9
2017-Nov-17 02:30N 51°18' E 002°18'7 9.2
2017-Nov-17 01:42N 51°19' E 002°06'2 9.4
2017-Nov-17 01:30N 51°20' E 002°04'4 8.4
2017-Nov-17 01:00N 51°23' E 001°59'4 9.1
2017-Nov-17 00:30N 51°26' E 001°54'4 8.3
2017-Nov-17 00:00N 51°29' E 001°49'5 9.6
2017-Nov-16 23:30N 51°29' E 001°41'4 8.9
2017-Nov-16 23:00N 51°28' E 001°34'4 8.6
2017-Nov-16 22:30N 51°26' E 001°28'3 5.3
2017-Nov-16 22:00N 51°25' E 001°24'0 0.0
2017-Nov-16 21:30N 51°25' E 001°24'0 0.0
2017-Nov-16 21:00N 51°25' E 001°24'0 0.0
2017-Nov-16 20:30N 51°25' E 001°24'0 0.0
2017-Nov-16 20:00N 51°25' E 001°24'0 0.0
2017-Nov-16 19:30N 51°25' E 001°24'0 0.0
2017-Nov-16 19:00N 51°25' E 001°24'0 0.0
2017-Nov-16 18:30N 51°25' E 001°24'0 0.1
2017-Nov-16 18:00N 51°25' E 001°24'0 0.1
2017-Nov-16 17:30N 51°25' E 001°24'0 0.1
2017-Nov-16 17:00N 51°25' E 001°24'0 0.1
2017-Nov-16 16:30N 51°25' E 001°24'0 0.0
2017-Nov-16 16:00N 51°25' E 001°24'0 0.0
2017-Nov-16 15:30N 51°25' E 001°24'0 0.0
2017-Nov-16 15:00N 51°25' E 001°24'0 0.0
2017-Nov-16 14:30N 51°25' E 001°24'0 0.0
2017-Nov-16 14:00N 51°25' E 001°24'0 0.0
2017-Nov-16 13:30N 51°25' E 001°24'0 0.0
2017-Nov-16 13:00N 51°25' E 001°24'0 0.0
2017-Nov-16 12:30N 51°25' E 001°24'0 0.0
2017-Nov-16 12:00N 51°25' E 001°24'0 0.0
2017-Nov-16 11:30N 51°25' E 001°24'0 0.2
2017-Nov-16 11:00N 51°25' E 001°24'0 0.0
2017-Nov-16 10:30N 51°25' E 001°24'0 0.0
2017-Nov-16 10:00N 51°25' E 001°24'0 0.0
2017-Nov-16 09:30N 51°25' E 001°24'0 0.0
2017-Nov-16 09:00N 51°25' E 001°24'0 0.1
2017-Nov-16 08:30N 51°25' E 001°24'0 0.0
2017-Nov-16 08:00N 51°25' E 001°24'0 0.0
2017-Nov-16 07:30N 51°25' E 001°24'0 0.0
2017-Nov-16 07:00N 51°25' E 001°24'0 0.0
2017-Nov-16 06:30N 51°25' E 001°24'0 0.0
2017-Nov-16 06:00N 51°25' E 001°24'0 0.1
2017-Nov-16 05:30N 51°25' E 001°24'0 0.1
2017-Nov-16 05:00N 51°25' E 001°24'0 0.0
2017-Nov-16 04:30N 51°25' E 001°24'0 0.0
2017-Nov-16 04:00N 51°25' E 001°24'0 0.0
2017-Nov-16 03:30N 51°25' E 001°24'0 0.0
2017-Nov-16 03:00N 51°25' E 001°24'0 0.0
2017-Nov-16 02:30N 51°25' E 001°24'0 0.0
2017-Nov-16 02:00N 51°25' E 001°24'0 0.0
2017-Nov-16 01:30N 51°25' E 001°24'0 0.0
2017-Nov-16 01:00N 51°25' E 001°24'0 0.0
2017-Nov-16 00:30N 51°25' E 001°24'0 0.0
2017-Nov-16 00:00N 51°25' E 001°24'0 0.0
2017-Nov-15 23:30N 51°25' E 001°24'0 0.2
2017-Nov-15 23:00N 51°25' E 001°24'0 0.0
2017-Nov-15 22:30N 51°25' E 001°24'0 0.0
2017-Nov-15 22:00N 51°25' E 001°24'0 0.0
2017-Nov-15 21:30N 51°25' E 001°24'0 0.0
2017-Nov-15 21:00N 51°25' E 001°24'0 0.0
2017-Nov-15 20:30N 51°25' E 001°24'0 0.0
2017-Nov-15 20:00N 51°25' E 001°24'0 0.0
2017-Nov-15 19:30N 51°25' E 001°24'0 0.0
2017-Nov-15 19:00N 51°25' E 001°24'0 0.0
2017-Nov-15 18:30N 51°25' E 001°24'0 0.0
2017-Nov-15 18:00N 51°25' E 001°24'0 0.0
2017-Nov-15 17:30N 51°25' E 001°24'0 0.0
2017-Nov-15 17:00N 51°25' E 001°24'0 0.1
2017-Nov-15 16:30N 51°25' E 001°24'0 0.1
2017-Nov-15 16:00N 51°25' E 001°24'0 0.0
2017-Nov-15 15:30N 51°25' E 001°24'0 0.0
2017-Nov-15 15:00N 51°25' E 001°24'0 0.0
2017-Nov-15 14:30N 51°25' E 001°24'0 0.0
2017-Nov-15 14:00N 51°25' E 001°24'0 0.0
2017-Nov-15 13:30N 51°25' E 001°24'0 0.0
2017-Nov-15 13:00N 51°25' E 001°24'0 0.0
2017-Nov-15 12:30N 51°25' E 001°24'0 0.0
2017-Nov-15 12:00N 51°25' E 001°24'0 0.0
2017-Nov-15 11:30N 51°25' E 001°24'0 0.1
2017-Nov-15 11:00N 51°25' E 001°24'0 0.2
2017-Nov-15 10:30N 51°25' E 001°24'0 0.0
2017-Nov-15 10:00N 51°25' E 001°24'0 0.0
2017-Nov-15 09:30N 51°25' E 001°24'0 0.0
2017-Nov-15 09:00N 51°25' E 001°24'0 0.0
2017-Nov-15 08:30N 51°25' E 001°24'0 0.0
2017-Nov-15 08:00N 51°25' E 001°24'0 0.0
2017-Nov-15 07:30N 51°25' E 001°24'0 0.0
2017-Nov-15 07:00N 51°25' E 001°24'0 0.0
2017-Nov-15 06:30N 51°25' E 001°24'0 0.0
2017-Nov-15 06:00N 51°25' E 001°24'0 0.0
2017-Nov-15 05:30N 51°25' E 001°24'0 0.1
2017-Nov-15 05:00N 51°25' E 001°24'0 0.1
2017-Nov-15 04:30N 51°25' E 001°24'0 0.0
2017-Nov-15 04:00N 51°25' E 001°24'0 0.0
2017-Nov-15 03:30N 51°25' E 001°24'0 0.0
2017-Nov-15 03:00N 51°25' E 001°24'0 0.0
2017-Nov-15 02:30N 51°25' E 001°24'0 0.0
2017-Nov-15 02:00N 51°25' E 001°24'0 0.0
2017-Nov-15 01:30N 51°25' E 001°24'0 0.0
2017-Nov-15 01:00N 51°25' E 001°24'0 0.0
2017-Nov-15 00:30N 51°25' E 001°24'0 0.0
2017-Nov-15 00:00N 51°25' E 001°24'0 0.1
2017-Nov-14 23:30N 51°25' E 001°24'0 0.3
2017-Nov-14 23:00N 51°25' E 001°24'4 8.0
2017-Nov-14 22:30N 51°24' E 001°30'5 9.8
2017-Nov-14 22:00N 51°20' E 001°35'611.0
2017-Nov-14 21:30N 51°15' E 001°38'510.4
2017-Nov-14 21:00N 51°10' E 001°38'5 9.0
2017-Nov-14 20:30N 51°06' E 001°40'510.8
2017-Nov-14 20:00N 51°01' E 001°36'510.5
2017-Nov-14 19:30N 50°57' E 001°32'65 7.1
2017-Nov-14 10:21N 50°33' W 000°04'3 8.8
2017-Nov-14 10:00N 50°36' W 000°04'5 9.0
2017-Nov-14 09:30N 50°40' W 000°01'5 9.4
2017-Nov-14 09:00N 50°44' E 000°02'4 7.1
2017-Nov-14 08:30N 50°48' E 000°03'0 0.1
2017-Nov-14 07:54N 50°48' E 000°03'0 0.0
2017-Nov-14 07:30N 50°48' E 000°03'0 0.0
2017-Nov-14 07:00N 50°48' E 000°03'0 0.0
2017-Nov-14 06:30N 50°48' E 000°03'0 0.0
2017-Nov-14 06:00N 50°48' E 000°03'0 0.0
2017-Nov-14 05:27N 50°48' E 000°03'0 0.0
2017-Nov-14 05:00N 50°48' E 000°03'0 0.0
2017-Nov-14 04:30N 50°48' E 000°03'0 0.0
2017-Nov-14 04:00N 50°48' E 000°03'0 0.0
2017-Nov-14 03:27N 50°48' E 000°03'0 0.0
2017-Nov-14 03:00N 50°48' E 000°03'0 0.0
2017-Nov-14 02:30N 50°48' E 000°03'0 0.0
2017-Nov-14 02:00N 50°48' E 000°03'0 0.0
2017-Nov-14 01:30N 50°48' E 000°03'0 0.0
2017-Nov-14 00:57N 50°48' E 000°03'0 0.0
2017-Nov-14 00:30N 50°48' E 000°03'0 0.0
2017-Nov-14 00:00N 50°48' E 000°03'0 0.0
2017-Nov-13 23:30N 50°48' E 000°03'0 0.0
2017-Nov-13 23:00N 50°48' E 000°03'0 0.0
2017-Nov-13 22:27N 50°48' E 000°03'0 0.0
2017-Nov-13 22:00N 50°48' E 000°03'112 5.0
2017-Nov-12 23:23N 50°16' W 002°46'3 6.8
2017-Nov-12 22:53N 50°16' W 002°51'2 6.5
2017-Nov-12 22:30N 50°15' W 002°55'3 6.4
2017-Nov-12 22:00N 50°14' W 003°00'3 6.4
2017-Nov-12 21:31N 50°14' W 003°05'3 6.4
2017-Nov-12 21:00N 50°13' W 003°10'3 6.4
2017-Nov-12 20:30N 50°13' W 003°15'3 6.6
2017-Nov-12 20:01N 50°12' W 003°20'4 7.0
2017-Nov-12 19:30N 50°11' W 003°25'4 7.1
2017-Nov-12 19:01N 50°10' W 003°30'4 7.3
2017-Nov-12 18:30N 50°10' W 003°36'4 7.6
2017-Nov-12 18:00N 50°09' W 003°42'5 7.9
2017-Nov-12 17:25N 50°09' W 003°49'4 8.1
2017-Nov-12 16:56N 50°08' W 003°55'5 8.1
2017-Nov-12 16:16N 50°08' W 004°03'2 8.1
2017-Nov-12 16:01N 50°08' W 004°07'8 8.0
2017-Nov-12 14:58N 50°07' W 004°20'4 8.0
2017-Nov-12 14:30N 50°06' W 004°25'5 7.8
2017-Nov-12 13:53N 50°06' W 004°33'3 7.9
2017-Nov-12 13:30N 50°05' W 004°38'4 8.2
2017-Nov-12 13:00N 50°05' W 004°44'8 8.3
2017-Nov-12 12:01N 50°04' W 004°57'3 7.2
2017-Nov-12 11:35N 50°04' W 005°01'1 0.2
2017-Nov-12 07:39N 50°05' W 005°01'1 3.6
2017-Nov-12 07:22N 50°04' W 005°01'2 4.0
2017-Nov-12 07:00N 50°03' W 004°59'2 1.3
2017-Nov-12 05:49N 50°04' W 005°00'0 0.6
2017-Nov-12 05:30N 50°04' W 005°00'2 3.1
2017-Nov-12 04:56N 50°03' W 004°58'0 1.2
2017-Nov-12 04:30N 50°03' W 004°59'0 0.9
2017-Nov-12 04:00N 50°03' W 004°60'1 1.4
2017-Nov-12 03:11N 50°04' W 004°58'1 4.8
2017-Nov-12 02:57N 50°04' W 004°57'0 0.8
2017-Nov-12 02:30N 50°04' W 004°56'1 1.2
2017-Nov-12 01:59N 50°04' W 004°57'1 1.2
2017-Nov-12 01:28N 50°04' W 004°58'1 1.7
2017-Nov-12 01:00N 50°05' W 004°57'1 1.1
2017-Nov-12 00:22N 50°05' W 004°57'2 1.3
2017-Nov-11 22:56N 50°05' W 004°59'1 3.1
2017-Nov-11 22:28N 50°05' W 004°57'2 1.2
2017-Nov-11 20:37N 50°04' W 005°00'1 3.5
2017-Nov-11 20:13N 50°04' W 004°58'1 4.7
2017-Nov-11 20:00N 50°03' W 004°57'0 0.8
2017-Nov-11 19:30N 50°03' W 004°57'1 0.8
2017-Nov-11 18:40N 50°03' W 004°58'0 0.8
2017-Nov-11 18:30N 50°03' W 004°58'2 0.9
2017-Nov-11 16:45N 50°03' W 005°01'1 3.4
2017-Nov-11 16:19N 50°02' W 004°59'1 1.1
2017-Nov-11 15:26N 50°02' W 004°58'1 1.2
2017-Nov-11 14:49N 50°02' W 004°59'1 1.3
2017-Nov-11 14:26N 50°02' W 004°59'1 0.7
2017-Nov-11 13:10N 50°03' W 004°59'2 5.1
2017-Nov-11 12:49N 50°03' W 004°56'1 1.0
2017-Nov-11 12:11N 50°03' W 004°57'0 1.5
2017-Nov-11 12:00N 50°03' W 004°57'1 1.5
2017-Nov-11 11:30N 50°03' W 004°58'2 1.7
2017-Nov-11 10:26N 50°02' W 005°01'2 4.3
2017-Nov-11 09:57N 50°04' W 004°60'9 6.2
2017-Nov-11 08:26N 50°04' W 004°45'3 5.6
2017-Nov-11 07:51N 50°03' W 004°40'2 5.4
2017-Nov-11 07:30N 50°03' W 004°37'3 5.2
2017-Nov-11 06:59N 50°03' W 004°33'3 5.2
2017-Nov-11 06:30N 50°03' W 004°29'3 4.8
2017-Nov-11 05:52N 50°03' W 004°25'3 4.4
2017-Nov-11 05:06N 50°03' W 004°19'0 4.4
2017-Nov-11 05:00N 50°03' W 004°19'3 4.2
2017-Nov-11 04:18N 50°04' W 004°14'1 4.3
2017-Nov-11 03:58N 50°04' W 004°12'4 4.5
2017-Nov-11 03:04N 50°05' W 004°06'0 3.8
2017-Nov-11 02:57N 50°05' W 004°05'2 4.5
2017-Nov-11 02:30N 50°05' W 004°02'6 4.9
2017-Nov-11 01:15N 50°07' W 003°53'1 5.1
2017-Nov-11 00:58N 50°07' W 003°51'4 5.2
2017-Nov-11 00:16N 50°09' W 003°45'2 5.1
2017-Nov-10 23:54N 50°09' W 003°43'2 5.2
2017-Nov-10 23:30N 50°09' W 003°39'3 5.5
2017-Nov-10 23:00N 50°10' W 003°35'3 6.2
2017-Nov-10 22:30N 50°10' W 003°30'3 6.7
2017-Nov-10 22:00N 50°11' W 003°25'3 7.0
2017-Nov-10 21:30N 50°11' W 003°20'4 7.6
2017-Nov-10 21:00N 50°12' W 003°14'4 7.9
2017-Nov-10 20:30N 50°13' W 003°08'4 8.6
2017-Nov-10 20:00N 50°13' W 003°01'5 9.1
2017-Nov-10 19:29N 50°14' W 002°54'6 9.4
2017-Nov-10 18:54N 50°16' W 002°46'7 9.8
2017-Nov-10 18:13N 50°17' W 002°35'44 5.8
2017-Nov-10 10:35N 50°10' W 001°27'0 4.5
2017-Nov-10 10:30N 50°10' W 001°27'2 3.9
2017-Nov-10 09:59N 50°08' W 001°25'2 3.5
2017-Nov-10 09:29N 50°07' W 001°23'2 4.9
2017-Nov-10 09:00N 50°06' W 001°20'7 6.4
2017-Nov-10 08:00N 50°04' W 001°10'3 6.7
2017-Nov-10 07:30N 50°02' W 001°06'7 8.6
2017-Nov-10 06:44N 49°60' W 000°56'19 9.6
2017-Nov-10 04:47N 49°55' W 000°28'3 9.3
2017-Nov-10 04:30N 49°54' W 000°24'5 9.3
2017-Nov-10 04:00N 49°53' W 000°17'5 9.1
2017-Nov-10 03:30N 49°52' W 000°10'5 9.0
2017-Nov-10 02:59N 49°51' W 000°03'4 8.6
2017-Nov-10 02:30N 49°50' E 000°03'4 8.2
2017-Nov-10 02:00N 49°48' E 000°09'4 7.8
2017-Nov-10 01:28N 49°47' E 000°15'  

Dump ship's entire track history